sensor_id;sensor_type;location;lat;lon;timestamp;P1;durP1;ratioP1;P2;durP2;ratioP2
52618;SDS011;38513;53.234;6.568;2023-01-04T00:00:39;11.52;;;3.80;;
52618;SDS011;38513;53.234;6.568;2023-01-04T00:03:05;14.80;;;4.45;;
52618;SDS011;38513;53.234;6.568;2023-01-04T00:05:31;12.97;;;3.80;;
52618;SDS011;38513;53.234;6.568;2023-01-04T00:07:57;11.45;;;3.97;;
52618;SDS011;38513;53.234;6.568;2023-01-04T00:10:23;12.23;;;3.72;;
52618;SDS011;38513;53.234;6.568;2023-01-04T00:12:50;12.63;;;3.60;;
52618;SDS011;38513;53.234;6.568;2023-01-04T00:15:16;12.75;;;4.20;;
52618;SDS011;38513;53.234;6.568;2023-01-04T00:17:42;11.10;;;3.65;;
52618;SDS011;38513;53.234;6.568;2023-01-04T00:20:08;11.43;;;3.78;;
52618;SDS011;38513;53.234;6.568;2023-01-04T00:22:35;9.98;;;3.72;;
52618;SDS011;38513;53.234;6.568;2023-01-04T00:25:01;11.60;;;3.85;;
52618;SDS011;38513;53.234;6.568;2023-01-04T00:27:27;13.68;;;3.80;;
52618;SDS011;38513;53.234;6.568;2023-01-04T00:29:53;11.45;;;3.80;;
52618;SDS011;38513;53.234;6.568;2023-01-04T00:32:20;10.73;;;4.00;;
52618;SDS011;38513;53.234;6.568;2023-01-04T00:34:46;12.27;;;3.80;;
52618;SDS011;38513;53.234;6.568;2023-01-04T00:37:12;11.83;;;4.10;;
52618;SDS011;38513;53.234;6.568;2023-01-04T00:39:44;10.55;;;3.90;;
52618;SDS011;38513;53.234;6.568;2023-01-04T00:42:13;12.95;;;4.40;;
52618;SDS011;38513;53.234;6.568;2023-01-04T00:44:40;13.73;;;4.25;;
52618;SDS011;38513;53.234;6.568;2023-01-04T00:47:06;10.57;;;4.47;;
52618;SDS011;38513;53.234;6.568;2023-01-04T00:49:33;14.38;;;4.70;;
52618;SDS011;38513;53.234;6.568;2023-01-04T00:51:59;14.02;;;4.43;;
52618;SDS011;38513;53.234;6.568;2023-01-04T00:54:27;13.25;;;5.00;;
52618;SDS011;38513;53.234;6.568;2023-01-04T00:56:54;13.57;;;4.70;;
52618;SDS011;38513;53.234;6.568;2023-01-04T00:59:20;12.13;;;4.32;;
52618;SDS011;38513;53.234;6.568;2023-01-04T01:01:47;13.13;;;4.97;;
52618;SDS011;38513;53.234;6.568;2023-01-04T01:04:14;13.00;;;4.93;;
52618;SDS011;38513;53.234;6.568;2023-01-04T01:06:44;11.88;;;4.70;;
52618;SDS011;38513;53.234;6.568;2023-01-04T01:09:10;12.88;;;4.75;;
52618;SDS011;38513;53.234;6.568;2023-01-04T01:11:39;13.38;;;4.90;;
52618;SDS011;38513;53.234;6.568;2023-01-04T01:14:14;13.40;;;5.47;;
52618;SDS011;38513;53.234;6.568;2023-01-04T01:16:44;11.98;;;4.78;;
52618;SDS011;38513;53.234;6.568;2023-01-04T01:19:14;13.32;;;4.95;;
52618;SDS011;38513;53.234;6.568;2023-01-04T01:21:40;13.80;;;4.95;;
52618;SDS011;38513;53.234;6.568;2023-01-04T01:24:11;12.20;;;5.03;;
52618;SDS011;38513;53.234;6.568;2023-01-04T01:26:39;12.73;;;5.22;;
52618;SDS011;38513;53.234;6.568;2023-01-04T01:29:08;15.02;;;5.22;;
52618;SDS011;38513;53.234;6.568;2023-01-04T01:31:34;13.38;;;4.78;;
52618;SDS011;38513;53.234;6.568;2023-01-04T01:34:00;12.18;;;5.05;;
52618;SDS011;38513;53.234;6.568;2023-01-04T01:36:27;13.23;;;4.85;;
52618;SDS011;38513;53.234;6.568;2023-01-04T01:38:53;11.85;;;4.80;;
52618;SDS011;38513;53.234;6.568;2023-01-04T01:46:28;10.50;;;4.47;;
52618;SDS011;38513;53.234;6.568;2023-01-04T01:48:57;11.85;;;5.18;;
52618;SDS011;38513;53.234;6.568;2023-01-04T01:51:24;11.60;;;5.03;;
52618;SDS011;38513;53.234;6.568;2023-01-04T01:53:53;11.18;;;4.55;;
52618;SDS011;38513;53.234;6.568;2023-01-04T01:56:23;13.27;;;5.38;;
52618;SDS011;38513;53.234;6.568;2023-01-04T01:58:49;9.43;;;4.70;;
52618;SDS011;38513;53.234;6.568;2023-01-04T02:01:17;12.82;;;5.32;;
52618;SDS011;38513;53.234;6.568;2023-01-04T02:03:44;11.68;;;5.13;;
52618;SDS011;38513;53.234;6.568;2023-01-04T02:06:11;11.25;;;5.10;;
52618;SDS011;38513;53.234;6.568;2023-01-04T02:08:38;11.88;;;5.15;;
52618;SDS011;38513;53.234;6.568;2023-01-04T02:11:05;9.55;;;4.63;;
52618;SDS011;38513;53.234;6.568;2023-01-04T02:13:31;12.95;;;4.88;;
52618;SDS011;38513;53.234;6.568;2023-01-04T02:16:44;9.45;;;4.50;;
52618;SDS011;38513;53.234;6.568;2023-01-04T02:19:18;10.35;;;4.63;;
52618;SDS011;38513;53.234;6.568;2023-01-04T02:25:02;7.75;;;4.03;;
52618;SDS011;38513;53.234;6.568;2023-01-04T02:37:50;9.00;;;3.73;;
52618;SDS011;38513;53.234;6.568;2023-01-04T02:40:27;8.23;;;3.58;;
52618;SDS011;38513;53.234;6.568;2023-01-04T02:43:06;7.20;;;3.35;;
52618;SDS011;38513;53.234;6.568;2023-01-04T02:45:55;6.70;;;3.15;;
52618;SDS011;38513;53.234;6.568;2023-01-04T02:48:23;8.10;;;3.10;;
52618;SDS011;38513;53.234;6.568;2023-01-04T02:51:30;8.60;;;3.08;;
52618;SDS011;38513;53.234;6.568;2023-01-04T02:53:57;6.13;;;2.78;;
52618;SDS011;38513;53.234;6.568;2023-01-04T03:01:38;5.63;;;2.60;;
52618;SDS011;38513;53.234;6.568;2023-01-04T03:07:17;7.03;;;2.88;;
52618;SDS011;38513;53.234;6.568;2023-01-04T03:09:49;7.10;;;2.70;;
52618;SDS011;38513;53.234;6.568;2023-01-04T03:15:24;7.38;;;2.42;;
52618;SDS011;38513;53.234;6.568;2023-01-04T03:18:15;5.30;;;1.90;;
52618;SDS011;38513;53.234;6.568;2023-01-04T03:20:42;6.32;;;1.90;;
52618;SDS011;38513;53.234;6.568;2023-01-04T03:23:15;5.78;;;1.90;;
52618;SDS011;38513;53.234;6.568;2023-01-04T03:28:45;4.50;;;1.70;;
52618;SDS011;38513;53.234;6.568;2023-01-04T03:31:32;4.85;;;1.70;;
52618;SDS011;38513;53.234;6.568;2023-01-04T03:34:18;5.20;;;1.67;;
52618;SDS011;38513;53.234;6.568;2023-01-04T03:45:32;3.75;;;1.50;;
52618;SDS011;38513;53.234;6.568;2023-01-04T03:48:21;3.92;;;1.67;;
52618;SDS011;38513;53.234;6.568;2023-01-04T03:51:01;3.75;;;1.50;;
52618;SDS011;38513;53.234;6.568;2023-01-04T03:53:28;4.80;;;1.70;;
52618;SDS011;38513;53.234;6.568;2023-01-04T03:55:56;4.35;;;1.60;;
52618;SDS011;38513;53.234;6.568;2023-01-04T03:58:26;5.70;;;2.00;;
52618;SDS011;38513;53.234;6.568;2023-01-04T04:00:52;5.63;;;2.00;;
52618;SDS011;38513;53.234;6.568;2023-01-04T04:03:18;4.45;;;2.15;;
52618;SDS011;38513;53.234;6.568;2023-01-04T04:05:46;5.40;;;1.98;;
52618;SDS011;38513;53.234;6.568;2023-01-04T04:08:31;5.03;;;2.08;;
52618;SDS011;38513;53.234;6.568;2023-01-04T04:10:58;5.00;;;2.20;;
52618;SDS011;38513;53.234;6.568;2023-01-04T04:13:44;4.80;;;2.20;;
52618;SDS011;38513;53.234;6.568;2023-01-04T04:16:10;5.10;;;2.33;;
52618;SDS011;38513;53.234;6.568;2023-01-04T04:18:37;5.10;;;2.22;;
52618;SDS011;38513;53.234;6.568;2023-01-04T04:21:04;5.20;;;2.38;;
52618;SDS011;38513;53.234;6.568;2023-01-04T04:23:30;5.47;;;2.50;;
52618;SDS011;38513;53.234;6.568;2023-01-04T04:25:56;5.45;;;2.50;;
52618;SDS011;38513;53.234;6.568;2023-01-04T04:28:22;4.85;;;2.40;;
52618;SDS011;38513;53.234;6.568;2023-01-04T04:30:49;5.77;;;3.13;;
52618;SDS011;38513;53.234;6.568;2023-01-04T04:33:15;5.60;;;3.20;;
52618;SDS011;38513;53.234;6.568;2023-01-04T04:35:48;6.60;;;3.58;;
52618;SDS011;38513;53.234;6.568;2023-01-04T04:38:14;6.10;;;3.65;;
52618;SDS011;38513;53.234;6.568;2023-01-04T04:40:40;6.13;;;3.55;;
52618;SDS011;38513;53.234;6.568;2023-01-04T04:43:28;6.00;;;3.80;;
52618;SDS011;38513;53.234;6.568;2023-01-04T04:45:54;5.80;;;3.50;;
52618;SDS011;38513;53.234;6.568;2023-01-04T04:48:20;6.55;;;3.90;;
52618;SDS011;38513;53.234;6.568;2023-01-04T04:50:46;6.95;;;4.60;;
52618;SDS011;38513;53.234;6.568;2023-01-04T04:53:13;6.38;;;4.10;;
52618;SDS011;38513;53.234;6.568;2023-01-04T04:55:39;7.07;;;4.57;;
52618;SDS011;38513;53.234;6.568;2023-01-04T04:58:05;7.40;;;3.90;;
52618;SDS011;38513;53.234;6.568;2023-01-04T05:00:31;7.95;;;4.50;;
52618;SDS011;38513;53.234;6.568;2023-01-04T05:02:58;6.47;;;4.33;;
52618;SDS011;38513;53.234;6.568;2023-01-04T05:05:24;6.97;;;4.50;;
52618;SDS011;38513;53.234;6.568;2023-01-04T05:07:50;6.82;;;4.65;;
52618;SDS011;38513;53.234;6.568;2023-01-04T05:10:16;8.20;;;4.90;;
52618;SDS011;38513;53.234;6.568;2023-01-04T05:12:43;7.10;;;4.83;;
52618;SDS011;38513;53.234;6.568;2023-01-04T05:15:31;7.63;;;4.80;;
52618;SDS011;38513;53.234;6.568;2023-01-04T05:17:58;7.38;;;4.68;;
52618;SDS011;38513;53.234;6.568;2023-01-04T05:20:24;6.40;;;4.25;;
52618;SDS011;38513;53.234;6.568;2023-01-04T05:22:50;7.35;;;4.63;;
52618;SDS011;38513;53.234;6.568;2023-01-04T05:25:16;6.93;;;4.30;;
52618;SDS011;38513;53.234;6.568;2023-01-04T05:27:43;7.77;;;4.50;;
52618;SDS011;38513;53.234;6.568;2023-01-04T05:30:09;7.57;;;4.70;;
52618;SDS011;38513;53.234;6.568;2023-01-04T05:32:55;7.75;;;4.78;;
52618;SDS011;38513;53.234;6.568;2023-01-04T05:35:21;8.13;;;4.63;;
52618;SDS011;38513;53.234;6.568;2023-01-04T05:37:47;7.20;;;4.43;;
52618;SDS011;38513;53.234;6.568;2023-01-04T05:40:13;8.93;;;4.65;;
52618;SDS011;38513;53.234;6.568;2023-01-04T05:42:39;8.00;;;4.53;;
52618;SDS011;38513;53.234;6.568;2023-01-04T05:45:09;7.78;;;4.47;;
52618;SDS011;38513;53.234;6.568;2023-01-04T05:47:35;6.90;;;4.20;;
52618;SDS011;38513;53.234;6.568;2023-01-04T05:50:02;8.57;;;4.47;;
52618;SDS011;38513;53.234;6.568;2023-01-04T05:52:28;7.43;;;4.40;;
52618;SDS011;38513;53.234;6.568;2023-01-04T05:54:57;8.13;;;4.40;;
52618;SDS011;38513;53.234;6.568;2023-01-04T05:57:23;6.75;;;3.75;;
52618;SDS011;38513;53.234;6.568;2023-01-04T05:59:49;6.82;;;3.10;;
52618;SDS011;38513;53.234;6.568;2023-01-04T06:02:21;6.28;;;3.00;;
52618;SDS011;38513;53.234;6.568;2023-01-04T06:04:48;5.03;;;2.55;;
52618;SDS011;38513;53.234;6.568;2023-01-04T06:07:14;5.00;;;2.63;;
52618;SDS011;38513;53.234;6.568;2023-01-04T06:09:44;5.68;;;2.63;;
52618;SDS011;38513;53.234;6.568;2023-01-04T06:12:10;5.10;;;2.60;;
52618;SDS011;38513;53.234;6.568;2023-01-04T06:14:37;4.90;;;2.25;;
52618;SDS011;38513;53.234;6.568;2023-01-04T06:17:03;6.13;;;2.40;;
52618;SDS011;38513;53.234;6.568;2023-01-04T06:19:30;6.05;;;2.85;;
52618;SDS011;38513;53.234;6.568;2023-01-04T06:21:56;5.93;;;2.80;;
52618;SDS011;38513;53.234;6.568;2023-01-04T06:24:22;5.70;;;2.70;;
52618;SDS011;38513;53.234;6.568;2023-01-04T06:26:49;6.68;;;2.72;;
52618;SDS011;38513;53.234;6.568;2023-01-04T06:29:15;6.53;;;2.80;;
52618;SDS011;38513;53.234;6.568;2023-01-04T06:31:41;6.50;;;2.85;;
52618;SDS011;38513;53.234;6.568;2023-01-04T06:34:14;6.53;;;2.90;;
52618;SDS011;38513;53.234;6.568;2023-01-04T06:36:43;6.85;;;2.83;;
52618;SDS011;38513;53.234;6.568;2023-01-04T06:39:10;7.00;;;3.38;;
52618;SDS011;38513;53.234;6.568;2023-01-04T06:41:44;7.97;;;3.00;;
52618;SDS011;38513;53.234;6.568;2023-01-04T06:44:14;7.65;;;3.13;;
52618;SDS011;38513;53.234;6.568;2023-01-04T06:46:40;6.88;;;2.60;;
52618;SDS011;38513;53.234;6.568;2023-01-04T06:49:08;5.83;;;2.60;;
52618;SDS011;38513;53.234;6.568;2023-01-04T06:51:35;6.32;;;2.70;;
52618;SDS011;38513;53.234;6.568;2023-01-04T06:54:01;6.97;;;2.30;;
52618;SDS011;38513;53.234;6.568;2023-01-04T06:56:27;5.57;;;2.15;;
52618;SDS011;38513;53.234;6.568;2023-01-04T06:58:55;6.15;;;2.55;;
52618;SDS011;38513;53.234;6.568;2023-01-04T07:01:21;5.93;;;2.50;;
52618;SDS011;38513;53.234;6.568;2023-01-04T07:03:47;6.20;;;2.50;;
52618;SDS011;38513;53.234;6.568;2023-01-04T07:06:13;7.32;;;2.40;;
52618;SDS011;38513;53.234;6.568;2023-01-04T07:08:39;6.13;;;2.50;;
52618;SDS011;38513;53.234;6.568;2023-01-04T07:11:05;6.60;;;2.33;;
52618;SDS011;38513;53.234;6.568;2023-01-04T07:13:31;5.82;;;2.30;;
52618;SDS011;38513;53.234;6.568;2023-01-04T07:15:57;5.77;;;2.37;;
52618;SDS011;38513;53.234;6.568;2023-01-04T07:18:24;6.70;;;2.65;;
52618;SDS011;38513;53.234;6.568;2023-01-04T07:20:50;8.38;;;2.85;;
52618;SDS011;38513;53.234;6.568;2023-01-04T07:23:16;9.55;;;3.17;;
52618;SDS011;38513;53.234;6.568;2023-01-04T07:25:42;8.65;;;3.88;;
52618;SDS011;38513;53.234;6.568;2023-01-04T07:28:09;10.60;;;4.35;;
52618;SDS011;38513;53.234;6.568;2023-01-04T07:30:35;11.57;;;4.60;;
52618;SDS011;38513;53.234;6.568;2023-01-04T07:33:03;10.00;;;4.03;;
52618;SDS011;38513;53.234;6.568;2023-01-04T07:35:30;12.10;;;4.55;;
52618;SDS011;38513;53.234;6.568;2023-01-04T07:37:56;13.80;;;4.40;;
52618;SDS011;38513;53.234;6.568;2023-01-04T08:16:46;7.15;;;2.60;;
52618;SDS011;38513;53.234;6.568;2023-01-04T08:19:20;7.70;;;2.55;;
52618;SDS011;38513;53.234;6.568;2023-01-04T08:21:47;9.07;;;2.33;;
52618;SDS011;38513;53.234;6.568;2023-01-04T08:24:16;8.70;;;2.70;;
52618;SDS011;38513;53.234;6.568;2023-01-04T08:26:43;6.28;;;2.08;;
52618;SDS011;38513;53.234;6.568;2023-01-04T08:29:10;6.82;;;2.40;;
52618;SDS011;38513;53.234;6.568;2023-01-04T08:31:39;7.55;;;2.25;;
52618;SDS011;38513;53.234;6.568;2023-01-04T08:34:08;5.75;;;2.13;;
52618;SDS011;38513;53.234;6.568;2023-01-04T08:36:42;6.28;;;2.25;;
52618;SDS011;38513;53.234;6.568;2023-01-04T08:39:08;8.10;;;2.63;;
52618;SDS011;38513;53.234;6.568;2023-01-04T08:41:34;7.55;;;2.13;;
52618;SDS011;38513;53.234;6.568;2023-01-04T08:44:15;6.45;;;2.33;;
52618;SDS011;38513;53.234;6.568;2023-01-04T08:46:44;7.65;;;2.58;;
52618;SDS011;38513;53.234;6.568;2023-01-04T08:49:14;6.28;;;2.30;;
52618;SDS011;38513;53.234;6.568;2023-01-04T08:51:44;6.43;;;2.00;;
52618;SDS011;38513;53.234;6.568;2023-01-04T08:54:10;7.55;;;2.25;;
52618;SDS011;38513;53.234;6.568;2023-01-04T08:56:38;5.45;;;1.77;;
52618;SDS011;38513;53.234;6.568;2023-01-04T08:59:04;5.82;;;1.75;;
52618;SDS011;38513;53.234;6.568;2023-01-04T09:01:31;5.80;;;1.80;;
52618;SDS011;38513;53.234;6.568;2023-01-04T09:03:58;6.40;;;1.90;;
52618;SDS011;38513;53.234;6.568;2023-01-04T09:06:24;6.43;;;1.92;;
52618;SDS011;38513;53.234;6.568;2023-01-04T09:08:50;6.75;;;1.80;;
52618;SDS011;38513;53.234;6.568;2023-01-04T09:11:18;8.52;;;2.17;;
52618;SDS011;38513;53.234;6.568;2023-01-04T09:13:44;8.20;;;2.25;;
52618;SDS011;38513;53.234;6.568;2023-01-04T09:16:18;9.48;;;2.20;;
52618;SDS011;38513;53.234;6.568;2023-01-04T09:18:45;9.02;;;2.45;;
52618;SDS011;38513;53.234;6.568;2023-01-04T09:21:15;8.13;;;2.72;;
52618;SDS011;38513;53.234;6.568;2023-01-04T09:23:42;12.67;;;2.77;;
52618;SDS011;38513;53.234;6.568;2023-01-04T09:26:11;12.77;;;3.42;;
52618;SDS011;38513;53.234;6.568;2023-01-04T09:28:37;9.82;;;3.15;;
52618;SDS011;38513;53.234;6.568;2023-01-04T09:31:08;10.52;;;3.00;;
52618;SDS011;38513;53.234;6.568;2023-01-04T09:33:37;13.27;;;3.40;;
52618;SDS011;38513;53.234;6.568;2023-01-04T09:36:04;11.05;;;3.92;;
52618;SDS011;38513;53.234;6.568;2023-01-04T09:38:31;12.38;;;4.15;;
52618;SDS011;38513;53.234;6.568;2023-01-04T09:43:23;13.20;;;4.80;;
52618;SDS011;38513;53.234;6.568;2023-01-04T09:45:51;17.02;;;5.70;;
52618;SDS011;38513;53.234;6.568;2023-01-04T09:48:22;15.85;;;5.10;;
52618;SDS011;38513;53.234;6.568;2023-01-04T09:51:00;15.27;;;5.30;;
52618;SDS011;38513;53.234;6.568;2023-01-04T09:53:28;15.75;;;5.43;;
52618;SDS011;38513;53.234;6.568;2023-01-04T09:55:58;16.20;;;5.80;;
52618;SDS011;38513;53.234;6.568;2023-01-04T10:01:06;18.75;;;5.75;;
52618;SDS011;38513;53.234;6.568;2023-01-04T10:03:33;17.42;;;5.65;;
52618;SDS011;38513;53.234;6.568;2023-01-04T10:06:00;17.90;;;4.95;;
52618;SDS011;38513;53.234;6.568;2023-01-04T10:08:27;17.33;;;5.63;;
52618;SDS011;38513;53.234;6.568;2023-01-04T10:15:59;19.67;;;5.20;;
52618;SDS011;38513;53.234;6.568;2023-01-04T10:18:36;22.75;;;5.30;;
52618;SDS011;38513;53.234;6.568;2023-01-04T10:21:14;22.13;;;5.57;;
52618;SDS011;38513;53.234;6.568;2023-01-04T10:26:26;24.00;;;5.90;;
52618;SDS011;38513;53.234;6.568;2023-01-04T10:29:19;24.38;;;5.20;;
52618;SDS011;38513;53.234;6.568;2023-01-04T10:32:00;23.02;;;4.90;;
52618;SDS011;38513;53.234;6.568;2023-01-04T10:34:46;26.87;;;5.67;;
52618;SDS011;38513;53.234;6.568;2023-01-04T10:37:19;25.58;;;5.30;;
52618;SDS011;38513;53.234;6.568;2023-01-04T10:39:49;25.77;;;5.70;;
52618;SDS011;38513;53.234;6.568;2023-01-04T10:42:32;26.40;;;5.55;;
52618;SDS011;38513;53.234;6.568;2023-01-04T10:45:02;28.23;;;6.18;;
52618;SDS011;38513;53.234;6.568;2023-01-04T10:50:35;28.77;;;6.93;;
52618;SDS011;38513;53.234;6.568;2023-01-04T10:53:09;31.80;;;6.68;;
52618;SDS011;38513;53.234;6.568;2023-01-04T10:55:48;28.55;;;6.60;;
52618;SDS011;38513;53.234;6.568;2023-01-04T10:58:16;33.55;;;6.72;;
52618;SDS011;38513;53.234;6.568;2023-01-04T11:00:46;34.30;;;7.35;;
52618;SDS011;38513;53.234;6.568;2023-01-04T11:03:15;30.02;;;7.53;;
52618;SDS011;38513;53.234;6.568;2023-01-04T11:05:48;35.08;;;6.88;;
52618;SDS011;38513;53.234;6.568;2023-01-04T11:08:18;35.47;;;7.43;;
52618;SDS011;38513;53.234;6.568;2023-01-04T11:10:49;34.78;;;7.28;;
52618;SDS011;38513;53.234;6.568;2023-01-04T11:13:17;34.20;;;7.68;;
52618;SDS011;38513;53.234;6.568;2023-01-04T11:15:43;39.05;;;7.72;;
52618;SDS011;38513;53.234;6.568;2023-01-04T11:18:15;30.88;;;7.32;;
52618;SDS011;38513;53.234;6.568;2023-01-04T11:20:42;37.63;;;7.00;;
52618;SDS011;38513;53.234;6.568;2023-01-04T11:26:05;34.60;;;6.80;;
52618;SDS011;38513;53.234;6.568;2023-01-04T11:28:35;33.45;;;6.97;;
52618;SDS011;38513;53.234;6.568;2023-01-04T11:31:04;32.10;;;6.57;;
52618;SDS011;38513;53.234;6.568;2023-01-04T11:33:54;26.63;;;6.50;;
52618;SDS011;38513;53.234;6.568;2023-01-04T11:38:56;24.45;;;5.75;;
52618;SDS011;38513;53.234;6.568;2023-01-04T11:41:23;22.88;;;5.22;;
52618;SDS011;38513;53.234;6.568;2023-01-04T11:43:57;24.60;;;5.23;;
52618;SDS011;38513;53.234;6.568;2023-01-04T11:46:24;22.52;;;5.43;;
52618;SDS011;38513;53.234;6.568;2023-01-04T11:48:51;29.48;;;6.50;;
52618;SDS011;38513;53.234;6.568;2023-01-04T11:56:56;35.05;;;7.65;;
52618;SDS011;38513;53.234;6.568;2023-01-04T11:59:23;32.80;;;6.97;;
52618;SDS011;38513;53.234;6.568;2023-01-04T12:01:50;31.30;;;6.85;;
52618;SDS011;38513;53.234;6.568;2023-01-04T12:04:21;28.70;;;7.10;;
52618;SDS011;38513;53.234;6.568;2023-01-04T12:09:15;30.60;;;6.70;;
52618;SDS011;38513;53.234;6.568;2023-01-04T12:11:44;29.60;;;6.47;;
52618;SDS011;38513;53.234;6.568;2023-01-04T12:14:35;28.27;;;6.00;;
52618;SDS011;38513;53.234;6.568;2023-01-04T12:19:42;28.92;;;6.32;;
52618;SDS011;38513;53.234;6.568;2023-01-04T12:22:17;25.08;;;6.00;;
52618;SDS011;38513;53.234;6.568;2023-01-04T12:24:44;26.83;;;5.82;;
52618;SDS011;38513;53.234;6.568;2023-01-04T12:27:14;28.35;;;6.57;;
52618;SDS011;38513;53.234;6.568;2023-01-04T12:34:41;21.98;;;5.22;;
52618;SDS011;38513;53.234;6.568;2023-01-04T12:37:08;24.40;;;5.57;;
52618;SDS011;38513;53.234;6.568;2023-01-04T12:50:08;18.70;;;4.65;;
52618;SDS011;38513;53.234;6.568;2023-01-04T12:52:52;19.50;;;4.33;;
52618;SDS011;38513;53.234;6.568;2023-01-04T13:01:09;19.65;;;4.55;;
52618;SDS011;38513;53.234;6.568;2023-01-04T13:03:47;18.58;;;4.30;;
52618;SDS011;38513;53.234;6.568;2023-01-04T13:06:16;17.42;;;3.88;;
52618;SDS011;38513;53.234;6.568;2023-01-04T13:08:45;16.85;;;3.80;;
52618;SDS011;38513;53.234;6.568;2023-01-04T13:14:02;13.88;;;3.40;;
52618;SDS011;38513;53.234;6.568;2023-01-04T13:16:32;16.00;;;3.72;;
52618;SDS011;38513;53.234;6.568;2023-01-04T13:19:11;18.13;;;3.88;;
52618;SDS011;38513;53.234;6.568;2023-01-04T13:21:39;19.65;;;4.72;;
52618;SDS011;38513;53.234;6.568;2023-01-04T13:31:56;23.00;;;4.77;;
52618;SDS011;38513;53.234;6.568;2023-01-04T13:39:24;25.85;;;5.18;;
52618;SDS011;38513;53.234;6.568;2023-01-04T13:41:52;25.30;;;5.00;;
52618;SDS011;38513;53.234;6.568;2023-01-04T13:44:29;19.63;;;4.70;;
52618;SDS011;38513;53.234;6.568;2023-01-04T13:47:02;22.52;;;5.15;;
52618;SDS011;38513;53.234;6.568;2023-01-04T13:49:28;19.67;;;4.53;;
52618;SDS011;38513;53.234;6.568;2023-01-04T13:51:54;25.50;;;5.82;;
52618;SDS011;38513;53.234;6.568;2023-01-04T13:54:21;26.42;;;5.68;;
52618;SDS011;38513;53.234;6.568;2023-01-04T13:56:48;24.00;;;5.50;;
52618;SDS011;38513;53.234;6.568;2023-01-04T13:59:16;24.67;;;5.93;;
52618;SDS011;38513;53.234;6.568;2023-01-04T14:01:45;22.17;;;5.37;;
52618;SDS011;38513;53.234;6.568;2023-01-04T14:04:25;24.10;;;5.13;;
52618;SDS011;38513;53.234;6.568;2023-01-04T14:06:57;22.23;;;5.25;;
52618;SDS011;38513;53.234;6.568;2023-01-04T14:09:26;22.58;;;5.72;;
52618;SDS011;38513;53.234;6.568;2023-01-04T14:12:00;24.83;;;5.80;;
52618;SDS011;38513;53.234;6.568;2023-01-04T14:17:52;26.08;;;5.93;;
52618;SDS011;38513;53.234;6.568;2023-01-04T14:31:10;26.60;;;5.55;;
52618;SDS011;38513;53.234;6.568;2023-01-04T14:33:42;30.38;;;6.43;;
52618;SDS011;38513;53.234;6.568;2023-01-04T14:36:13;24.67;;;5.45;;
52618;SDS011;38513;53.234;6.568;2023-01-04T14:41:20;26.77;;;6.00;;
52618;SDS011;38513;53.234;6.568;2023-01-04T14:43:48;27.85;;;6.13;;
52618;SDS011;38513;53.234;6.568;2023-01-04T14:46:17;24.23;;;6.05;;
52618;SDS011;38513;53.234;6.568;2023-01-04T14:49:19;29.80;;;6.68;;
52618;SDS011;38513;53.234;6.568;2023-01-04T14:51:51;28.08;;;6.25;;
52618;SDS011;38513;53.234;6.568;2023-01-04T14:54:18;29.20;;;5.97;;
52618;SDS011;38513;53.234;6.568;2023-01-04T14:56:45;23.40;;;5.90;;
52618;SDS011;38513;53.234;6.568;2023-01-04T14:59:14;27.45;;;6.57;;
52618;SDS011;38513;53.234;6.568;2023-01-04T15:01:46;26.73;;;5.87;;
52618;SDS011;38513;53.234;6.568;2023-01-04T15:04:12;25.57;;;5.93;;
52618;SDS011;38513;53.234;6.568;2023-01-04T15:06:46;26.30;;;6.07;;
52618;SDS011;38513;53.234;6.568;2023-01-04T15:09:16;25.23;;;5.60;;
52618;SDS011;38513;53.234;6.568;2023-01-04T15:11:42;24.73;;;5.78;;
52618;SDS011;38513;53.234;6.568;2023-01-04T15:14:09;24.65;;;5.93;;
52618;SDS011;38513;53.234;6.568;2023-01-04T15:16:35;23.23;;;5.30;;
52618;SDS011;38513;53.234;6.568;2023-01-04T15:19:02;23.80;;;5.63;;
52618;SDS011;38513;53.234;6.568;2023-01-04T15:21:28;27.85;;;6.38;;
52618;SDS011;38513;53.234;6.568;2023-01-04T15:23:54;26.60;;;6.13;;
52618;SDS011;38513;53.234;6.568;2023-01-04T15:26:20;26.33;;;6.50;;
52618;SDS011;38513;53.234;6.568;2023-01-04T15:28:46;24.58;;;5.43;;
52618;SDS011;38513;53.234;6.568;2023-01-04T15:31:13;32.20;;;6.47;;
52618;SDS011;38513;53.234;6.568;2023-01-04T15:33:40;27.98;;;6.30;;
52618;SDS011;38513;53.234;6.568;2023-01-04T15:36:15;28.50;;;6.22;;
52618;SDS011;38513;53.234;6.568;2023-01-04T15:38:43;35.30;;;6.53;;
52618;SDS011;38513;53.234;6.568;2023-01-04T15:41:10;27.02;;;6.22;;
52618;SDS011;38513;53.234;6.568;2023-01-04T15:44:03;28.55;;;6.43;;
52618;SDS011;38513;53.234;6.568;2023-01-04T15:46:33;28.77;;;6.75;;
52618;SDS011;38513;53.234;6.568;2023-01-04T15:48:59;30.73;;;7.05;;
52618;SDS011;38513;53.234;6.568;2023-01-04T15:51:25;31.63;;;6.40;;
52618;SDS011;38513;53.234;6.568;2023-01-04T15:53:54;28.08;;;6.45;;
52618;SDS011;38513;53.234;6.568;2023-01-04T15:56:21;26.23;;;5.78;;
52618;SDS011;38513;53.234;6.568;2023-01-04T15:58:50;30.55;;;6.45;;
52618;SDS011;38513;53.234;6.568;2023-01-04T16:01:17;30.33;;;6.68;;
52618;SDS011;38513;53.234;6.568;2023-01-04T16:03:43;27.55;;;6.63;;
52618;SDS011;38513;53.234;6.568;2023-01-04T16:06:10;25.73;;;6.13;;
52618;SDS011;38513;53.234;6.568;2023-01-04T16:08:43;28.80;;;5.90;;
52618;SDS011;38513;53.234;6.568;2023-01-04T16:11:29;28.77;;;6.07;;
52618;SDS011;38513;53.234;6.568;2023-01-04T16:13:55;29.23;;;6.70;;
52618;SDS011;38513;53.234;6.568;2023-01-04T16:16:22;26.40;;;6.60;;
52618;SDS011;38513;53.234;6.568;2023-01-04T16:18:52;26.92;;;5.93;;
52618;SDS011;38513;53.234;6.568;2023-01-04T16:21:23;34.55;;;7.97;;
52618;SDS011;38513;53.234;6.568;2023-01-04T16:23:54;32.25;;;7.50;;
52618;SDS011;38513;53.234;6.568;2023-01-04T16:26:20;30.20;;;6.75;;
52618;SDS011;38513;53.234;6.568;2023-01-04T16:28:53;33.15;;;6.70;;
52618;SDS011;38513;53.234;6.568;2023-01-04T16:31:20;27.13;;;6.63;;
52618;SDS011;38513;53.234;6.568;2023-01-04T16:33:50;33.67;;;7.15;;
52618;SDS011;38513;53.234;6.568;2023-01-04T16:36:16;28.42;;;6.43;;
52618;SDS011;38513;53.234;6.568;2023-01-04T16:38:43;26.15;;;6.40;;
52618;SDS011;38513;53.234;6.568;2023-01-04T16:41:10;30.70;;;6.55;;
52618;SDS011;38513;53.234;6.568;2023-01-04T16:43:47;29.95;;;6.95;;
52618;SDS011;38513;53.234;6.568;2023-01-04T16:46:21;29.63;;;7.03;;
52618;SDS011;38513;53.234;6.568;2023-01-04T16:48:51;30.17;;;6.88;;
52618;SDS011;38513;53.234;6.568;2023-01-04T16:51:22;30.02;;;7.22;;
52618;SDS011;38513;53.234;6.568;2023-01-04T16:54:00;31.70;;;7.53;;
52618;SDS011;38513;53.234;6.568;2023-01-04T16:56:27;39.65;;;7.75;;
52618;SDS011;38513;53.234;6.568;2023-01-04T16:59:04;35.25;;;7.28;;
52618;SDS011;38513;53.234;6.568;2023-01-04T17:01:32;29.27;;;6.50;;
52618;SDS011;38513;53.234;6.568;2023-01-04T17:03:59;34.60;;;8.02;;
52618;SDS011;38513;53.234;6.568;2023-01-04T17:06:38;35.70;;;7.93;;
52618;SDS011;38513;53.234;6.568;2023-01-04T17:09:05;34.70;;;7.05;;
52618;SDS011;38513;53.234;6.568;2023-01-04T17:11:33;32.23;;;7.20;;
52618;SDS011;38513;53.234;6.568;2023-01-04T17:13:59;36.17;;;7.50;;
52618;SDS011;38513;53.234;6.568;2023-01-04T17:16:26;37.30;;;6.95;;
52618;SDS011;38513;53.234;6.568;2023-01-04T17:18:53;37.33;;;7.72;;
52618;SDS011;38513;53.234;6.568;2023-01-04T17:21:29;37.10;;;7.93;;
52618;SDS011;38513;53.234;6.568;2023-01-04T17:23:56;40.80;;;7.57;;
52618;SDS011;38513;53.234;6.568;2023-01-04T17:26:24;36.47;;;7.22;;
52618;SDS011;38513;53.234;6.568;2023-01-04T17:28:51;40.42;;;8.18;;
52618;SDS011;38513;53.234;6.568;2023-01-04T17:31:21;36.60;;;7.57;;
52618;SDS011;38513;53.234;6.568;2023-01-04T17:33:48;38.25;;;7.60;;
52618;SDS011;38513;53.234;6.568;2023-01-04T17:36:17;36.30;;;7.75;;
52618;SDS011;38513;53.234;6.568;2023-01-04T17:38:44;34.87;;;7.23;;